CDT,Max TemperatureF,Mean TemperatureF,Min TemperatureF,Max Dew PointF,MeanDew PointF,Min DewpointF,Max Humidity, Mean Humidity, Min Humidity, Max Sea Level PressureIn, Mean Sea Level PressureIn, Min Sea Level PressureIn, Max VisibilityMiles, Mean VisibilityMiles, Min VisibilityMiles, Max Wind SpeedMPH, Mean Wind SpeedMPH, Max Gust SpeedMPH,PrecipitationIn, CloudCover, Events, WindDirDegrees
2010-10-1,85,74,64,57,53,49,65,48,29,29.93,29.89,29.85,10,10,10,12,7,,0.00,0,,351
2010-10-2,82,70,59,55,49,47,67,47,30,29.96,29.92,29.87,10,10,7,13,7,,0.00,0,,3
2010-10-3,77,67,58,52,46,40,70,48,31,30.17,30.05,29.96,10,10,10,16,11,24,0.00,0,,3
2010-10-4,73,61,50,42,40,37,68,47,27,30.26,30.20,30.15,10,10,10,17,10,20,0.00,0,Rain,10
2010-10-5,74,62,51,45,41,38,65,45,29,30.32,30.25,30.19,10,10,10,53,11,70,0.00,0,,18
2010-10-6,79,66,52,58,45,39,80,52,24,30.29,30.20,30.13,10,10,10,10,5,,0.00,0,,3
2010-10-7,83,68,55,58,46,39,72,51,24,30.22,30.14,30.08,10,10,10,10,4,,0.00,0,,351
2010-10-8,86,70,57,59,52,48,81,54,29,30.15,30.09,30.04,10,10,10,12,2,,0.00,0,,272
2010-10-9,85,72,62,66,59,51,84,62,39,30.10,30.05,29.99,10,10,10,12,3,,0.00,0,,233
2010-10-10,83,72,63,68,63,57,89,72,48,30.04,29.99,29.94,10,10,10,14,4,,0.00,0,,223
2010-10-11,79,72,64,68,64,59,100,76,50,30.04,29.99,29.95,10,8,2,13,4,,0.00,0,Rain,199
2010-10-12,81,76,70,68,65,63,82,73,57,30.01,29.97,29.93,10,10,10,13,8,,0.00,3,,231
2010-10-13,83,73,64,65,61,53,90,70,35,30.06,30.01,29.97,10,10,10,12,3,,0.00,1,,302
2010-10-14,81,72,62,59,53,44,80,56,31,30.12,30.07,30.03,10,10,10,16,6,20,0.00,0,,357
2010-10-15,77,64,53,53,45,34,63,48,22,30.16,30.10,30.03,10,10,10,13,5,,0.00,0,,299
2010-10-16,81,68,56,62,52,41,95,59,27,30.18,30.13,30.08,10,10,4,9,3,,0.00,0,,198
2010-10-17,79,68,56,63,59,56,100,77,47,30.18,30.12,30.05,10,10,2,13,3,,0.00,0,Rain,188
2010-10-18,80,72,63,63,60,54,92,69,41,30.09,30.03,29.96,10,10,10,13,7,,0.00,0,Rain,238
2010-10-19,83,72,62,64,60,53,89,68,35,30.04,29.99,29.94,10,10,10,15,3,,0.00,0,,263
2010-10-20,79,70,63,62,61,59,86,72,54,30.05,30.00,29.97,10,10,10,8,2,,0.00,2,Rain,347
2010-10-21,80,68,58,63,56,48,91,65,35,30.10,30.04,30.00,10,10,9,10,4,,0.00,0,,305
2010-10-22,84,71,59,64,55,44,95,65,25,30.14,30.09,30.04,10,10,10,10,3,,0.00,0,,118
2010-10-23,81,68,56,72,62,51,96,77,39,30.17,30.12,30.08,10,10,10,15,6,,0.03,1,Rain,108
2010-10-24,84,78,72,74,71,67,96,82,66,30.09,30.02,29.92,10,10,10,20,10,25,0.00,4,,144
2010-10-25,83,77,71,77,75,72,100,96,77,29.93,29.88,29.79,10,10,5,17,9,23,0.05,5,Rain-Thunderstorm,201
2010-10-26,84,80,76,77,76,74,97,89,74,29.89,29.83,29.78,10,10,10,37,14,70,0.00,4,,147
2010-10-27,85,81,77,79,77,75,100,93,76,30.07,29.96,29.89,10,10,10,15,12,,0.00,6,Thunderstorm,200
2010-10-28,79,70,60,79,71,36,100,88,22,30.25,30.09,30.04,10,9,1,21,10,22,0.79,5,Rain-Thunderstorm,257
2010-10-29,74,62,51,41,39,34,65,46,24,30.30,30.22,30.16,10,10,10,15,11,21,0.00,0,,12
2010-10-30,75,60,47,60,47,39,99,63,36,30.21,30.15,30.07,10,10,10,8,5,,0.00,0,,354
2010-10-31,77,66,56,62,59,56,100,90,54,30.13,30.07,30.04,10,6,1,12,1,,0.00,1,Rain,221